sensor_id;sensor_type;location;lat;lon;timestamp;pressure;altitude;pressure_sealevel;temperature;humidity
11888;BME280;6003;42.756;23.130;2022-07-23T00:01:31;157619.16;;;20.15;63.10
11888;BME280;6003;42.756;23.130;2022-07-23T00:03:58;157603.19;;;20.09;62.88
11888;BME280;6003;42.756;23.130;2022-07-23T00:06:25;157595.19;;;20.06;63.09
11888;BME280;6003;42.756;23.130;2022-07-23T00:08:51;157579.22;;;20.00;64.18
11888;BME280;6003;42.756;23.130;2022-07-23T00:11:19;157551.25;;;19.89;64.03
11888;BME280;6003;42.756;23.130;2022-07-23T00:13:47;157547.25;;;19.88;64.26
11888;BME280;6003;42.756;23.130;2022-07-23T00:16:15;157521.97;;;19.78;64.30
11888;BME280;6003;42.756;23.130;2022-07-23T00:18:43;157508.66;;;19.73;65.01
11888;BME280;6003;42.756;23.130;2022-07-23T00:21:09;157509.97;;;19.73;64.68
11888;BME280;6003;42.756;23.130;2022-07-23T00:23:36;157502.00;;;19.70;65.11
11888;BME280;6003;42.756;23.130;2022-07-23T00:26:04;157470.03;;;19.58;65.06
11888;BME280;6003;42.756;23.130;2022-07-23T00:28:33;157454.06;;;19.52;65.59
11888;BME280;6003;42.756;23.130;2022-07-23T00:31:00;157438.09;;;19.46;66.07
11888;BME280;6003;42.756;23.130;2022-07-23T00:33:28;157420.78;;;19.39;66.21
11888;BME280;6003;42.756;23.130;2022-07-23T00:35:55;157408.84;;;19.34;65.58
11888;BME280;6003;42.756;23.130;2022-07-23T00:38:22;157391.56;;;19.28;65.53
11888;BME280;6003;42.756;23.130;2022-07-23T00:40:49;157380.88;;;19.24;66.04
11888;BME280;6003;42.756;23.130;2022-07-23T00:43:15;157368.94;;;19.19;66.05
11888;BME280;6003;42.756;23.130;2022-07-23T00:45:42;157360.91;;;19.16;66.35
11888;BME280;6003;42.756;23.130;2022-07-23T00:48:09;157350.28;;;19.12;66.63
11888;BME280;6003;42.756;23.130;2022-07-23T00:50:38;157347.66;;;19.11;67.12
11888;BME280;6003;42.756;23.130;2022-07-23T00:53:05;157326.34;;;19.03;67.71
11888;BME280;6003;42.756;23.130;2022-07-23T00:55:34;157318.38;;;19.00;68.34
11888;BME280;6003;42.756;23.130;2022-07-23T00:58:01;157299.72;;;18.92;68.23
11888;BME280;6003;42.756;23.130;2022-07-23T01:00:28;157287.78;;;18.88;68.98
11888;BME280;6003;42.756;23.130;2022-07-23T01:02:55;157275.81;;;18.83;69.56
11888;BME280;6003;42.756;23.130;2022-07-23T01:05:22;157243.84;;;18.71;69.70
11888;BME280;6003;42.756;23.130;2022-07-23T01:07:51;157235.88;;;18.68;69.68
11888;BME280;6003;42.756;23.130;2022-07-23T01:10:18;157219.91;;;18.62;69.85
11888;BME280;6003;42.756;23.130;2022-07-23T01:12:57;157222.56;;;18.63;69.28
11888;BME280;6003;42.756;23.130;2022-07-23T01:15:24;157221.25;;;18.62;69.07
11888;BME280;6003;42.756;23.130;2022-07-23T01:17:52;157225.19;;;18.64;68.57
11888;BME280;6003;42.756;23.130;2022-07-23T01:20:19;157206.59;;;18.57;68.31
11888;BME280;6003;42.756;23.130;2022-07-23T01:22:47;157219.91;;;18.62;68.52
11888;BME280;6003;42.756;23.130;2022-07-23T01:25:14;157203.91;;;18.56;68.91
11888;BME280;6003;42.756;23.130;2022-07-23T01:27:41;157198.63;;;18.54;69.17
11888;BME280;6003;42.756;23.130;2022-07-23T01:30:09;157191.97;;;18.51;68.69
11888;BME280;6003;42.756;23.130;2022-07-23T01:32:36;157186.66;;;18.49;68.61
11888;BME280;6003;42.756;23.130;2022-07-23T01:35:04;157177.34;;;18.45;68.57
11888;BME280;6003;42.756;23.130;2022-07-23T01:37:31;157162.72;;;18.40;68.74
11888;BME280;6003;42.756;23.130;2022-07-23T01:40:00;157149.41;;;18.35;69.41
11888;BME280;6003;42.756;23.130;2022-07-23T01:42:27;157160.09;;;18.39;69.42
11888;BME280;6003;42.756;23.130;2022-07-23T01:44:54;157140.13;;;18.31;70.00
11888;BME280;6003;42.756;23.130;2022-07-23T01:47:21;157125.50;;;18.25;70.26
11888;BME280;6003;42.756;23.130;2022-07-23T01:49:48;157114.88;;;18.21;70.45
11888;BME280;6003;42.756;23.130;2022-07-23T01:52:14;157094.94;;;18.14;70.94
11888;BME280;6003;42.756;23.130;2022-07-23T01:54:42;157089.59;;;18.12;71.41
11888;BME280;6003;42.756;23.130;2022-07-23T01:57:10;157061.66;;;18.01;71.62
11888;BME280;6003;42.756;23.130;2022-07-23T01:59:37;157047.09;;;17.95;72.05
11888;BME280;6003;42.756;23.130;2022-07-23T02:02:05;157031.09;;;17.89;73.23
11888;BME280;6003;42.756;23.130;2022-07-23T02:04:32;157020.50;;;17.85;73.07
11888;BME280;6003;42.756;23.130;2022-07-23T02:07:02;157008.50;;;17.80;73.38
11888;BME280;6003;42.756;23.130;2022-07-23T02:09:29;157008.50;;;17.80;73.18
11888;BME280;6003;42.756;23.130;2022-07-23T02:11:56;156991.19;;;17.74;73.50
11888;BME280;6003;42.756;23.130;2022-07-23T02:14:25;156989.88;;;17.73;73.42
11888;BME280;6003;42.756;23.130;2022-07-23T02:16:53;156975.25;;;17.68;73.89
11888;BME280;6003;42.756;23.130;2022-07-23T02:19:19;156961.97;;;17.63;73.95
11888;BME280;6003;42.756;23.130;2022-07-23T02:21:47;156954.00;;;17.59;74.08
11888;BME280;6003;42.756;23.130;2022-07-23T02:24:14;156948.66;;;17.57;73.86
11888;BME280;6003;42.756;23.130;2022-07-23T02:26:40;156946.03;;;17.56;74.08
11888;BME280;6003;42.756;23.130;2022-07-23T02:29:07;156930.09;;;17.50;74.71
11888;BME280;6003;42.756;23.130;2022-07-23T02:31:36;156924.75;;;17.48;74.75
11888;BME280;6003;42.756;23.130;2022-07-23T02:34:03;156923.44;;;17.48;74.62
11888;BME280;6003;42.756;23.130;2022-07-23T02:36:30;156915.47;;;17.45;75.62
11888;BME280;6003;42.756;23.130;2022-07-23T02:38:57;156895.53;;;17.37;75.28
11888;BME280;6003;42.756;23.130;2022-07-23T02:41:23;156888.88;;;17.34;75.44
11888;BME280;6003;42.756;23.130;2022-07-23T02:43:50;156868.97;;;17.27;76.03
11888;BME280;6003;42.756;23.130;2022-07-23T02:46:18;156874.25;;;17.29;76.77
11888;BME280;6003;42.756;23.130;2022-07-23T02:48:46;156870.28;;;17.27;76.80
11888;BME280;6003;42.756;23.130;2022-07-23T02:51:13;156845.06;;;17.18;76.91
11888;BME280;6003;42.756;23.130;2022-07-23T02:53:40;156843.69;;;17.17;77.50
11888;BME280;6003;42.756;23.130;2022-07-23T02:56:07;156833.09;;;17.13;76.97
11888;BME280;6003;42.756;23.130;2022-07-23T02:58:33;156853.03;;;17.21;77.16
11888;BME280;6003;42.756;23.130;2022-07-23T03:01:00;156845.06;;;17.18;77.07
11888;BME280;6003;42.756;23.130;2022-07-23T03:03:27;156839.75;;;17.16;77.52
11888;BME280;6003;42.756;23.130;2022-07-23T03:05:55;156839.75;;;17.16;77.29
11888;BME280;6003;42.756;23.130;2022-07-23T03:08:22;156845.06;;;17.18;78.26
11888;BME280;6003;42.756;23.130;2022-07-23T03:10:49;156833.09;;;17.13;77.71
11888;BME280;6003;42.756;23.130;2022-07-23T03:13:16;156818.47;;;17.07;77.74
11888;BME280;6003;42.756;23.130;2022-07-23T03:15:43;156826.44;;;17.10;77.37
11888;BME280;6003;42.756;23.130;2022-07-23T03:18:10;156826.44;;;17.10;77.95
11888;BME280;6003;42.756;23.130;2022-07-23T03:20:37;156822.44;;;17.09;77.84
11888;BME280;6003;42.756;23.130;2022-07-23T03:23:05;156822.44;;;17.09;77.76
11888;BME280;6003;42.756;23.130;2022-07-23T03:25:32;156822.44;;;17.09;77.79
11888;BME280;6003;42.756;23.130;2022-07-23T03:27:59;156842.38;;;17.17;77.46
11888;BME280;6003;42.756;23.130;2022-07-23T03:30:26;156880.91;;;17.31;77.16
11888;BME280;6003;42.756;23.130;2022-07-23T03:32:53;156930.09;;;17.50;76.78
11888;BME280;6003;42.756;23.130;2022-07-23T03:35:21;156985.88;;;17.72;76.16
11888;BME280;6003;42.756;23.130;2022-07-23T03:37:47;157055.06;;;17.98;75.37
11888;BME280;6003;42.756;23.130;2022-07-23T03:40:16;157144.13;;;18.33;74.63
11888;BME280;6003;42.756;23.130;2022-07-23T03:42:42;157211.94;;;18.59;73.29
11888;BME280;6003;42.756;23.130;2022-07-23T03:45:11;157269.16;;;18.81;72.43
11888;BME280;6003;42.756;23.130;2022-07-23T03:47:38;157336.97;;;19.07;71.87
11888;BME280;6003;42.756;23.130;2022-07-23T03:50:07;157392.88;;;19.28;71.52
11888;BME280;6003;42.756;23.130;2022-07-23T03:52:34;157419.47;;;19.38;70.55
11888;BME280;6003;42.756;23.130;2022-07-23T03:55:01;157448.72;;;19.50;69.94
11888;BME280;6003;42.756;23.130;2022-07-23T03:57:30;157456.72;;;19.53;70.14
11888;BME280;6003;42.756;23.130;2022-07-23T03:59:57;157442.06;;;19.47;70.34
11888;BME280;6003;42.756;23.130;2022-07-23T04:02:24;157463.38;;;19.55;70.12
11888;BME280;6003;42.756;23.130;2022-07-23T04:04:51;157490.06;;;19.66;70.21
11888;BME280;6003;42.756;23.130;2022-07-23T04:07:18;157508.66;;;19.73;70.58
11888;BME280;6003;42.756;23.130;2022-07-23T04:09:45;157544.59;;;19.87;70.76
11888;BME280;6003;42.756;23.130;2022-07-23T04:12:12;157552.59;;;19.90;71.02
11888;BME280;6003;42.756;23.130;2022-07-23T04:14:40;157595.19;;;20.06;71.17
11888;BME280;6003;42.756;23.130;2022-07-23T04:17:07;157637.75;;;20.22;70.84
11888;BME280;6003;42.756;23.130;2022-07-23T04:19:34;157741.66;;;20.62;69.77
11888;BME280;6003;42.756;23.130;2022-07-23T04:22:05;157970.84;;;21.50;66.52
11888;BME280;6003;42.756;23.130;2022-07-23T04:24:32;158208.16;;;22.41;62.95
11888;BME280;6003;42.756;23.130;2022-07-23T04:26:59;158446.91;;;23.33;60.04
11888;BME280;6003;42.756;23.130;2022-07-23T04:29:26;158691.19;;;24.26;57.82
11888;BME280;6003;42.756;23.130;2022-07-23T04:31:54;158953.00;;;25.27;54.10
11888;BME280;6003;42.756;23.130;2022-07-23T04:34:21;159164.13;;;26.07;51.96
11888;BME280;6003;42.756;23.130;2022-07-23T04:36:48;159324.56;;;26.69;50.07
11888;BME280;6003;42.756;23.130;2022-07-23T04:39:15;159502.50;;;27.37;48.72
11888;BME280;6003;42.756;23.130;2022-07-23T04:41:42;159626.91;;;27.84;48.39
11888;BME280;6003;42.756;23.130;2022-07-23T04:44:09;159760.72;;;28.35;47.10
11888;BME280;6003;42.756;23.130;2022-07-23T04:46:36;159798.25;;;28.50;46.44
11888;BME280;6003;42.756;23.130;2022-07-23T04:49:04;159905.34;;;28.91;47.02
11888;BME280;6003;42.756;23.130;2022-07-23T04:51:31;159996.41;;;29.26;45.50
11888;BME280;6003;42.756;23.130;2022-07-23T04:53:58;160147.78;;;29.83;44.33
11888;BME280;6003;42.756;23.130;2022-07-23T04:56:25;160242.94;;;30.20;42.33
11888;BME280;6003;42.756;23.130;2022-07-23T04:58:52;160336.75;;;30.55;42.52
11888;BME280;6003;42.756;23.130;2022-07-23T05:01:19;160385.03;;;30.74;42.20
11888;BME280;6003;42.756;23.130;2022-07-23T05:03:45;160422.59;;;30.88;41.73
11888;BME280;6003;42.756;23.130;2022-07-23T05:06:15;160074.13;;;29.55;41.55
11888;BME280;6003;42.756;23.130;2022-07-23T05:08:42;160033.91;;;29.40;43.78
11888;BME280;6003;42.756;23.130;2022-07-23T05:11:09;160138.44;;;29.80;42.62
11888;BME280;6003;42.756;23.130;2022-07-23T05:13:36;160189.34;;;29.99;41.54
11888;BME280;6003;42.756;23.130;2022-07-23T05:16:03;160312.63;;;30.46;42.46
11888;BME280;6003;42.756;23.130;2022-07-23T05:18:30;160482.91;;;31.11;40.18
11888;BME280;6003;42.756;23.130;2022-07-23T05:20:56;160267.09;;;30.29;40.99
11888;BME280;6003;42.756;23.130;2022-07-23T05:23:25;160355.53;;;30.63;40.75
11888;BME280;6003;42.756;23.130;2022-07-23T05:25:52;160185.31;;;29.98;39.43
11888;BME280;6003;42.756;23.130;2022-07-23T05:28:18;160139.75;;;29.80;41.80
11888;BME280;6003;42.756;23.130;2022-07-23T05:30:45;160058.00;;;29.49;41.66
11888;BME280;6003;42.756;23.130;2022-07-23T05:33:12;160046.00;;;29.44;40.83
11888;BME280;6003;42.756;23.130;2022-07-23T05:35:39;160063.38;;;29.51;41.07
11888;BME280;6003;42.756;23.130;2022-07-23T05:38:06;160131.72;;;29.77;41.46
11888;BME280;6003;42.756;23.130;2022-07-23T05:40:34;160240.25;;;30.19;40.77
11888;BME280;6003;42.756;23.130;2022-07-23T05:43:01;160473.53;;;31.08;39.04
11888;BME280;6003;42.756;23.130;2022-07-23T05:45:28;160704.22;;;31.96;37.82
11888;BME280;6003;42.756;23.130;2022-07-23T05:47:55;160831.66;;;32.44;37.43
11888;BME280;6003;42.756;23.130;2022-07-23T05:50:22;160939.03;;;32.85;37.22
11888;BME280;6003;42.756;23.130;2022-07-23T05:52:48;160929.63;;;32.81;35.53
11888;BME280;6003;42.756;23.130;2022-07-23T05:55:15;160693.53;;;31.91;37.54
11888;BME280;6003;42.756;23.130;2022-07-23T05:57:43;160623.69;;;31.65;40.60
11888;BME280;6003;42.756;23.130;2022-07-23T06:00:11;160501.66;;;31.18;41.54
11888;BME280;6003;42.756;23.130;2022-07-23T06:02:38;160570.06;;;31.44;39.23
11888;BME280;6003;42.756;23.130;2022-07-23T06:05:06;160490.97;;;31.14;40.82
11888;BME280;6003;42.756;23.130;2022-07-23T06:07:35;160417.22;;;30.86;43.82
11888;BME280;6003;42.756;23.130;2022-07-23T06:10:03;160775.34;;;32.23;39.62
11888;BME280;6003;42.756;23.130;2022-07-23T06:12:30;160478.88;;;31.10;41.69
11888;BME280;6003;42.756;23.130;2022-07-23T06:14:58;160583.50;;;31.50;40.07
11888;BME280;6003;42.756;23.130;2022-07-23T06:17:25;160427.97;;;30.90;41.49
11888;BME280;6003;42.756;23.130;2022-07-23T06:19:53;160080.81;;;29.58;44.64
11888;BME280;6003;42.756;23.130;2022-07-23T06:22:21;160430.63;;;30.91;43.23
11888;BME280;6003;42.756;23.130;2022-07-23T06:24:48;160468.16;;;31.06;41.52
11888;BME280;6003;42.756;23.130;2022-07-23T06:27:16;160320.69;;;30.49;41.82
11888;BME280;6003;42.756;23.130;2022-07-23T06:29:42;160288.53;;;30.37;43.50
11888;BME280;6003;42.756;23.130;2022-07-23T06:32:11;160350.16;;;30.61;44.37
11888;BME280;6003;42.756;23.130;2022-07-23T06:34:38;160350.16;;;30.61;42.55
11888;BME280;6003;42.756;23.130;2022-07-23T06:37:04;160023.22;;;29.36;45.51
11888;BME280;6003;42.756;23.130;2022-07-23T06:39:31;160197.38;;;30.02;45.82
11888;BME280;6003;42.756;23.130;2022-07-23T06:41:58;160237.56;;;30.18;47.27
11888;BME280;6003;42.756;23.130;2022-07-23T06:44:26;160210.78;;;30.07;44.09
11888;BME280;6003;42.756;23.130;2022-07-23T06:46:54;160324.72;;;30.51;45.96
11888;BME280;6003;42.756;23.130;2022-07-23T06:49:22;160277.84;;;30.33;43.67
11888;BME280;6003;42.756;23.130;2022-07-23T06:51:49;160237.56;;;30.18;44.10
11888;BME280;6003;42.756;23.130;2022-07-23T06:54:16;160261.75;;;30.27;45.57
11888;BME280;6003;42.756;23.130;2022-07-23T06:56:42;160229.53;;;30.14;44.75
11888;BME280;6003;42.756;23.130;2022-07-23T06:59:12;160525.81;;;31.28;44.00
11888;BME280;6003;42.756;23.130;2022-07-23T07:01:39;160692.19;;;31.91;41.52
11888;BME280;6003;42.756;23.130;2022-07-23T07:04:06;160881.38;;;32.63;40.53
11888;BME280;6003;42.756;23.130;2022-07-23T07:06:35;160697.50;;;31.93;43.11
11888;BME280;6003;42.756;23.130;2022-07-23T07:09:02;160709.59;;;31.98;41.29
11888;BME280;6003;42.756;23.130;2022-07-23T07:11:29;160545.94;;;31.35;40.40
11888;BME280;6003;42.756;23.130;2022-07-23T07:13:56;160583.50;;;31.50;42.07
11888;BME280;6003;42.756;23.130;2022-07-23T07:16:23;160596.91;;;31.55;40.77
11888;BME280;6003;42.756;23.130;2022-07-23T07:18:50;160693.53;;;31.91;44.44
11888;BME280;6003;42.756;23.130;2022-07-23T07:21:16;160556.72;;;31.39;40.22
11888;BME280;6003;42.756;23.130;2022-07-23T07:23:45;160556.72;;;31.39;42.95
11888;BME280;6003;42.756;23.130;2022-07-23T07:26:12;160606.28;;;31.58;40.62
11888;BME280;6003;42.756;23.130;2022-07-23T07:28:39;160555.31;;;31.39;44.70
11888;BME280;6003;42.756;23.130;2022-07-23T07:31:07;160588.88;;;31.52;41.71
11888;BME280;6003;42.756;23.130;2022-07-23T07:33:34;160676.00;;;31.85;42.38
11888;BME280;6003;42.756;23.130;2022-07-23T07:36:02;160763.25;;;32.18;41.12
11888;BME280;6003;42.756;23.130;2022-07-23T07:38:29;160580.84;;;31.49;41.97
11888;BME280;6003;42.756;23.130;2022-07-23T07:40:57;160551.31;;;31.37;43.25
11888;BME280;6003;42.756;23.130;2022-07-23T07:43:25;160370.28;;;30.68;44.01
11888;BME280;6003;42.756;23.130;2022-07-23T07:45:52;160371.59;;;30.69;43.84
11888;BME280;6003;42.756;23.130;2022-07-23T07:48:18;160484.25;;;31.12;46.06
11888;BME280;6003;42.756;23.130;2022-07-23T07:50:45;160550.00;;;31.37;43.52
11888;BME280;6003;42.756;23.130;2022-07-23T07:53:12;160634.47;;;31.69;43.52
11888;BME280;6003;42.756;23.130;2022-07-23T07:55:39;160667.97;;;31.82;43.70
11888;BME280;6003;42.756;23.130;2022-07-23T07:58:08;160720.31;;;32.02;43.07
11888;BME280;6003;42.756;23.130;2022-07-23T08:00:34;160727.03;;;32.04;42.58
11888;BME280;6003;42.756;23.130;2022-07-23T08:03:01;160641.16;;;31.72;41.51
11888;BME280;6003;42.756;23.130;2022-07-23T08:05:29;160709.59;;;31.98;41.68
11888;BME280;6003;42.756;23.130;2022-07-23T08:07:58;160827.66;;;32.43;42.43
11888;BME280;6003;42.756;23.130;2022-07-23T08:10:25;160886.69;;;32.65;44.48
11888;BME280;6003;42.756;23.130;2022-07-23T08:12:54;160772.63;;;32.22;42.48
11888;BME280;6003;42.756;23.130;2022-07-23T08:15:25;160771.28;;;32.21;40.85
11888;BME280;6003;42.756;23.130;2022-07-23T08:17:52;160744.44;;;32.11;42.21
11888;BME280;6003;42.756;23.130;2022-07-23T08:20:21;160800.81;;;32.32;42.37
11888;BME280;6003;42.756;23.130;2022-07-23T08:22:50;160721.66;;;32.02;45.23
11888;BME280;6003;42.756;23.130;2022-07-23T08:25:21;160690.81;;;31.90;42.49
11888;BME280;6003;42.756;23.130;2022-07-23T08:27:48;160712.28;;;31.99;43.09
11888;BME280;6003;42.756;23.130;2022-07-23T08:30:16;160745.81;;;32.11;44.35
11888;BME280;6003;42.756;23.130;2022-07-23T08:32:56;160760.59;;;32.17;41.99
11888;BME280;6003;42.756;23.130;2022-07-23T08:35:25;160740.44;;;32.09;41.21
11888;BME280;6003;42.756;23.130;2022-07-23T08:37:52;160743.13;;;32.10;44.04
11888;BME280;6003;42.756;23.130;2022-07-23T08:40:20;160768.63;;;32.20;42.23
11888;BME280;6003;42.756;23.130;2022-07-23T08:42:48;160866.59;;;32.57;42.29
11888;BME280;6003;42.756;23.130;2022-07-23T08:45:16;160851.84;;;32.52;39.37
11888;BME280;6003;42.756;23.130;2022-07-23T08:47:47;160892.06;;;32.67;41.60
11888;BME280;6003;42.756;23.130;2022-07-23T08:50:16;160991.41;;;33.05;43.51
11888;BME280;6003;42.756;23.130;2022-07-23T08:52:43;161035.69;;;33.22;40.09
11888;BME280;6003;42.756;23.130;2022-07-23T08:55:10;161100.16;;;33.46;39.60
11888;BME280;6003;42.756;23.130;2022-07-23T08:57:37;161045.06;;;33.25;38.20
11888;BME280;6003;42.756;23.130;2022-07-23T09:00:05;161031.69;;;33.20;38.91
11888;BME280;6003;42.756;23.130;2022-07-23T09:02:39;160900.13;;;32.70;41.43
11888;BME280;6003;42.756;23.130;2022-07-23T09:05:07;160967.22;;;32.96;39.17
11888;BME280;6003;42.756;23.130;2022-07-23T09:07:35;160937.69;;;32.85;39.59
11888;BME280;6003;42.756;23.130;2022-07-23T09:10:10;160984.69;;;33.02;40.02
11888;BME280;6003;42.756;23.130;2022-07-23T09:12:37;161050.47;;;33.28;38.83
11888;BME280;6003;42.756;23.130;2022-07-23T09:15:06;161094.75;;;33.44;39.33
11888;BME280;6003;42.756;23.130;2022-07-23T09:17:38;161161.94;;;33.70;39.27
11888;BME280;6003;42.756;23.130;2022-07-23T09:20:10;161230.41;;;33.96;40.16
11888;BME280;6003;42.756;23.130;2022-07-23T09:22:40;161308.31;;;34.26;38.21
11888;BME280;6003;42.756;23.130;2022-07-23T09:25:11;161370.06;;;34.49;38.24
11888;BME280;6003;42.756;23.130;2022-07-23T09:27:51;161417.16;;;34.67;37.29
11888;BME280;6003;42.756;23.130;2022-07-23T09:30:20;161402.38;;;34.62;37.04
11888;BME280;6003;42.756;23.130;2022-07-23T09:33:05;161380.84;;;34.53;36.45
11888;BME280;6003;42.756;23.130;2022-07-23T09:35:49;161353.97;;;34.43;38.04
11888;BME280;6003;42.756;23.130;2022-07-23T09:38:18;161370.06;;;34.49;35.43
11888;BME280;6003;42.756;23.130;2022-07-23T09:40:46;161250.59;;;34.04;37.41
11888;BME280;6003;42.756;23.130;2022-07-23T09:43:26;161383.50;;;34.54;37.52
11888;BME280;6003;42.756;23.130;2022-07-23T09:45:53;161437.28;;;34.75;37.73
11888;BME280;6003;42.756;23.130;2022-07-23T09:48:22;161390.28;;;34.57;31.49
11888;BME280;6003;42.756;23.130;2022-07-23T09:50:51;161374.13;;;34.51;33.22
11888;BME280;6003;42.756;23.130;2022-07-23T09:53:24;161345.91;;;34.40;32.69
11888;BME280;6003;42.756;23.130;2022-07-23T09:55:53;161470.88;;;34.88;35.47
11888;BME280;6003;42.756;23.130;2022-07-23T09:58:25;161534.06;;;35.12;37.01
11888;BME280;6003;42.756;23.130;2022-07-23T10:00:53;161594.50;;;35.35;33.69
11888;BME280;6003;42.756;23.130;2022-07-23T10:03:21;161636.19;;;35.51;30.26
11888;BME280;6003;42.756;23.130;2022-07-23T10:05:50;161630.78;;;35.48;30.22
11888;BME280;6003;42.756;23.130;2022-07-23T10:08:19;161671.13;;;35.64;32.43
11888;BME280;6003;42.756;23.130;2022-07-23T10:10:48;161512.50;;;35.03;29.19
11888;BME280;6003;42.756;23.130;2022-07-23T10:13:15;161495.06;;;34.97;28.81
11888;BME280;6003;42.756;23.130;2022-07-23T10:16:01;161554.22;;;35.19;27.84
11888;BME280;6003;42.756;23.130;2022-07-23T10:18:30;161575.72;;;35.28;30.49
11888;BME280;6003;42.756;23.130;2022-07-23T10:20:57;161560.94;;;35.22;28.77
11888;BME280;6003;42.756;23.130;2022-07-23T10:23:33;161563.59;;;35.23;28.14
11888;BME280;6003;42.756;23.130;2022-07-23T10:26:10;161590.44;;;35.33;30.51
11888;BME280;6003;42.756;23.130;2022-07-23T10:29:07;161435.94;;;34.74;30.15
11888;BME280;6003;42.756;23.130;2022-07-23T10:31:46;161410.44;;;34.65;28.59
11888;BME280;6003;42.756;23.130;2022-07-23T10:34:20;161329.78;;;34.34;27.52
11888;BME280;6003;42.756;23.130;2022-07-23T10:36:52;161366.06;;;34.48;24.58
11888;BME280;6003;42.756;23.130;2022-07-23T10:39:24;161421.16;;;34.69;25.20
11888;BME280;6003;42.756;23.130;2022-07-23T10:42:07;161509.81;;;35.02;27.63
11888;BME280;6003;42.756;23.130;2022-07-23T10:44:38;161527.34;;;35.09;25.71
11888;BME280;6003;42.756;23.130;2022-07-23T10:47:08;161523.31;;;35.08;27.09
11888;BME280;6003;42.756;23.130;2022-07-23T10:50:17;161526.00;;;35.09;29.27
11888;BME280;6003;42.756;23.130;2022-07-23T10:53:09;161477.59;;;34.90;23.78
11888;BME280;6003;42.756;23.130;2022-07-23T10:55:44;161429.22;;;34.72;23.72
11888;BME280;6003;42.756;23.130;2022-07-23T10:58:18;161442.66;;;34.77;25.17
11888;BME280;6003;42.756;23.130;2022-07-23T11:00:45;161437.28;;;34.75;27.09
11888;BME280;6003;42.756;23.130;2022-07-23T11:03:31;161464.16;;;34.85;24.40
11888;BME280;6003;42.756;23.130;2022-07-23T11:06:01;161485.66;;;34.93;27.94
11888;BME280;6003;42.756;23.130;2022-07-23T11:08:28;161493.72;;;34.96;24.46
11888;BME280;6003;42.756;23.130;2022-07-23T11:11:08;161570.34;;;35.25;25.13
11888;BME280;6003;42.756;23.130;2022-07-23T11:13:45;161624.06;;;35.46;25.33
11888;BME280;6003;42.756;23.130;2022-07-23T11:16:25;161582.41;;;35.30;24.13
11888;BME280;6003;42.756;23.130;2022-07-23T11:19:07;161587.78;;;35.32;22.87
11888;BME280;6003;42.756;23.130;2022-07-23T11:21:48;161603.91;;;35.38;26.19
11888;BME280;6003;42.756;23.130;2022-07-23T11:24:23;161583.78;;;35.31;24.12
11888;BME280;6003;42.756;23.130;2022-07-23T11:27:01;161626.75;;;35.47;28.19
11888;BME280;6003;42.756;23.130;2022-07-23T11:29:46;161638.84;;;35.52;24.06
11888;BME280;6003;42.756;23.130;2022-07-23T11:32:36;161655.03;;;35.58;23.50
11888;BME280;6003;42.756;23.130;2022-07-23T11:35:25;161655.03;;;35.58;22.59
11888;BME280;6003;42.756;23.130;2022-07-23T11:37:54;161628.06;;;35.47;24.72
11888;BME280;6003;42.756;23.130;2022-07-23T11:40:24;161672.47;;;35.64;26.11
11888;BME280;6003;42.756;23.130;2022-07-23T11:42:53;161598.56;;;35.36;24.20
11888;BME280;6003;42.756;23.130;2022-07-23T11:45:29;161558.22;;;35.21;24.65
11888;BME280;6003;42.756;23.130;2022-07-23T11:47:57;161603.91;;;35.38;26.45
11888;BME280;6003;42.756;23.130;2022-07-23T11:50:24;161625.41;;;35.46;24.18
11888;BME280;6003;42.756;23.130;2022-07-23T11:52:52;161594.50;;;35.35;24.11
11888;BME280;6003;42.756;23.130;2022-07-23T11:55:19;161573.00;;;35.26;26.14
11888;BME280;6003;42.756;23.130;2022-07-23T11:57:45;161585.13;;;35.31;25.48
11888;BME280;6003;42.756;23.130;2022-07-23T12:00:14;161628.06;;;35.47;23.19
11888;BME280;6003;42.756;23.130;2022-07-23T12:02:45;161614.69;;;35.42;24.04
11888;BME280;6003;42.756;23.130;2022-07-23T12:05:13;161622.72;;;35.45;25.67
11888;BME280;6003;42.756;23.130;2022-07-23T12:07:41;161599.91;;;35.37;23.86
11888;BME280;6003;42.756;23.130;2022-07-23T12:10:12;161638.84;;;35.52;27.87
11888;BME280;6003;42.756;23.130;2022-07-23T12:12:42;161617.34;;;35.43;22.06
11888;BME280;6003;42.756;23.130;2022-07-23T12:15:10;161602.56;;;35.38;23.24
11888;BME280;6003;42.756;23.130;2022-07-23T12:17:38;161560.94;;;35.22;24.70
11888;BME280;6003;42.756;23.130;2022-07-23T12:20:09;161560.94;;;35.22;24.35
11888;BME280;6003;42.756;23.130;2022-07-23T12:22:39;161601.22;;;35.37;23.00
11888;BME280;6003;42.756;23.130;2022-07-23T12:25:09;161593.19;;;35.34;22.65
11888;BME280;6003;42.756;23.130;2022-07-23T12:27:36;161601.22;;;35.37;23.60
11888;BME280;6003;42.756;23.130;2022-07-23T12:30:20;161591.84;;;35.34;22.28
11888;BME280;6003;42.756;23.130;2022-07-23T12:32:49;161558.22;;;35.21;22.78
11888;BME280;6003;42.756;23.130;2022-07-23T12:35:18;161585.13;;;35.31;25.72
11888;BME280;6003;42.756;23.130;2022-07-23T12:37:48;161609.28;;;35.40;24.14
11888;BME280;6003;42.756;23.130;2022-07-23T12:40:22;161641.53;;;35.53;22.96
11888;BME280;6003;42.756;23.130;2022-07-23T12:42:51;161636.19;;;35.51;21.48
11888;BME280;6003;42.756;23.130;2022-07-23T12:45:18;161632.13;;;35.49;23.58
11888;BME280;6003;42.756;23.130;2022-07-23T12:47:56;161560.94;;;35.22;22.54
11888;BME280;6003;42.756;23.130;2022-07-23T12:50:49;161531.38;;;35.11;20.14
11888;BME280;6003;42.756;23.130;2022-07-23T12:53:18;161547.50;;;35.17;23.45
11888;BME280;6003;42.756;23.130;2022-07-23T12:55:46;161570.34;;;35.25;22.31
11888;BME280;6003;42.756;23.130;2022-07-23T12:58:17;161587.78;;;35.32;22.90
11888;BME280;6003;42.756;23.130;2022-07-23T13:00:56;161593.19;;;35.34;23.29